Hurst, Illinois
Current Conditions -  °F | °C
As of 9:52 AM on Monday 24 Nov 2014 (Local Time) from KMDH Reporting Station
Overcast Overcast  
Wind Chill: 39°   Ceiling: 2900
Heat Index: 44°   Visibility: 10mi
Dew Point: 34°   Wind: 10mph
Humidity: 68%   Direction: 250°WSW
Pressure: 29.7"   Gusts: NA
Location:  37.83°N, 89.14°W
Report Text: KMDH 241552Z 25009KT 10SM OVC029 07/01 A2970 RMK AO2 SLP056 T00670011
Loading
Personal Weather Stations






























Interactive Weather Map New forecast layout! Learn more

10-Day Weather Forecast

Advertisements
Track Severe Weather on mobile